Airfield :
LOGIN :

Register | Disclaimer

   EN    FR    IT 

 










Legend :    VFR   Marginal VFR   IFR   Intensive IFR   Very Intensive IFR
Visi :
Ceiling :
>= 8 km
>= 3000ft
5 to 8 km
1000 to 3000 ft
1500m to 5 km
500 to 1000 ft
800 to 1500m
200 to 500 ft
< 800m
< 200 ft
Symbols :   Thunderstorms  Fog  Heavy snow  Heavy precipitations  Wind > 20 kt
SIGMETs :     Misc.  Thunderstorms  Icing  Turbulence  Mountain Waves  Volcanic Ashes






- Airport Elevation : 479 ft
- IATA code : DOL


LFRG - Deauville

CURRENT METAR :
  • 200030Z AUTO 20013KT 9999 OVC043 08/06 Q1019

EXPIRED METARs :
  • 200000Z AUTO 20012KT 170V230 9999 OVC044 08/06 Q1020
  • 192330Z AUTO 20013KT 9999 FEW022 SCT029 OVC045 08/06 Q1020
  • 192300Z AUTO 21011KT 9999 FEW020 SCT040 OVC046 08/06 Q1020
  • 192230Z AUTO 21010KT 9999 FEW023 SCT038 OVC047 08/06 Q1021
  • 192200Z AUTO 20008KT 9999 BKN022 OVC047 08/06 Q1021

Expired Forecast.
ATIS : +33 2 31 65 65 36



MET'MAP, your aeronautical weather chart ! - Copyright ORBIFLY December 2007 - Disclaimer

ORBIFLY MET'MAP TEAM :

Programming & Development : Alexandra Zaïnal
Concept & original design : Baudouin d'Aumeries
Assistance for programming : Marc-Olivier Méhu
Technical & hardware support : Manuel Goepfert

Contact : metmap@orbifly.com




SOURCES & CREDITS :

   NOAA